Flight Track Log - Related Links

Times and Time Zones

All times are in EDT time to prevent confusion due to time zone crossing. See the UCA4772 flight status page for this flight to view local times or setup timezone preferences in your user account.

Time Position Orientation Groundspeed Altitude Reporting Facility
EDT Latitude Longitude Course Direction KTS MPH feet Rate Location/Type
Sun 05:42:44 AM 43.1092 -76.0986 190° South 112 129 1,000  Level Boston Center
Sun 05:43:49 AM 43.0825 -76.1050 190° South 153 176 1,900 1,008 Climbing Boston Center
Sun 05:44:49 AM 43.0569 -76.1669 241° Southwest 199 229 3,100 1,122 Climbing Boston Center
Sun 05:45:52 AM 43.0289 -76.2308 239° Southwest 197 227 4,200 1,055 Climbing Boston Center
Sun 05:46:20 AM 43.0128 -76.2639 236° Southwest 233 268 4,700 1,091 Climbing Boston Center
Sun 05:47:20 AM 42.9814 -76.3331 238° Southwest 215 247 5,800 1,200 Climbing Boston Center
Sun 05:48:20 AM 42.9247 -76.3503 193° South 212 244 7,100 1,300 Climbing Boston Center
Sun 05:49:20 AM 42.8667 -76.3642 190° South 212 244 8,400 1,279 Climbing Boston Center
Sun 05:50:22 AM 42.8089 -76.3783 190° South 212 244 9,700 1,289 Climbing Boston Center
Sun 05:51:21 AM 42.7503 -76.3939 191° South 212 244 11,000 1,261 Climbing Boston Center
Sun 05:52:21 AM 42.6925 -76.4094 191° South 212 244 12,200 1,200 Climbing Boston Center
Sun 05:53:21 AM 42.6350 -76.4250 191° South 212 244 13,400 1,190 Climbing Boston Center
Sun 05:54:22 AM 42.5775 -76.4394 190° South 212 244 14,600 1,140 Climbing Boston Center
Sun 05:55:22 AM 42.5206 -76.4536 190° South 210 242 15,700 700 Climbing Boston Center
Sun 05:56:22 AM 42.4603 -76.4683 190° South 216 249 16,000 492 Climbing Boston Center
Sun 05:57:24 AM 42.3919 -76.4858 191° South 244 281 16,700 829 Climbing Boston Center
Sun 05:58:25 AM 42.3306 -76.5019 191° South 231 266 17,700 650 Climbing Boston Center
Sun 05:59:24 AM 42.2706 -76.5172 191° South 219 252 18,000 153 Climbing Boston Center
Sun 06:00:23 AM 42.2069 -76.5325 190° South 242 278 18,000  Level Boston Center
Sun 06:01:24 AM 42.1364 -76.5514 191° South 256 295 18,000  Level Boston Center
Sun 06:02:27 AM 42.0597 -76.5725 192° South 260 299 18,000  Level Boston Center
Sun 06:03:27 AM 41.9944 -76.5900 191° South 264 304 18,000  Level Boston Center
Sun 06:04:24 AM 41.9217 -76.6039 188° South 263 303 18,000  Level Boston Center
Sun 06:05:25 AM 41.8478 -76.6264 193° South 259 298 18,000  Level New York Center
Sun 06:06:25 AM 41.7761 -76.6425 190° South 259 298 18,000  Level New York Center
Sun 06:07:24 AM 41.6961 -76.6603 189° South 259 298 18,000  Level New York Center
Sun 06:08:25 AM 41.6244 -76.6789 191° South 259 298 18,000  Level New York Center
Sun 06:09:24 AM 41.5608 -76.6983 193° South 259 298 18,000  Level New York Center
Sun 06:10:25 AM 41.4911 -76.7172 191° South 259 298 18,000  Level New York Center
Sun 06:11:25 AM 41.4219 -76.7303 188° South 259 298 18,000  Level New York Center
Sun 06:12:26 AM 41.3414 -76.7536 192° South 259 298 18,000  Level New York Center
Sun 06:13:24 AM 41.2719 -76.7694 190° South 259 298 18,000 -50 Level New York Center
Sun 06:14:26 AM 41.2003 -76.7853 189° South 259 298 17,900 -250 Descending New York Center
Sun 06:15:24 AM 41.1264 -76.8036 191° South 259 298 17,500 -508 Descending New York Center
Sun 06:16:24 AM 41.0525 -76.8244 192° South 259 298 16,900 -585 Descending New York Center
Sun 06:17:27 AM 40.9744 -76.8422 190° South 270 311 16,300 -450 Descending New York Center
Sun 06:18:24 AM 40.8986 -76.8603 190° South 275 316 16,000 -154 Descending New York Center
Sun 06:19:24 AM 40.8311 -76.8761 190° South 275 316 16,000  Level New York Center
Sun 06:20:25 AM 40.7528 -76.8967 191° South 275 316 16,000  Level New York Center
Sun 06:21:26 AM 40.6831 -76.9178 193° South 269 310 16,000  Level New York Center
Sun 06:22:25 AM 40.6131 -76.9417 195° South 264 304 16,000  Level New York Center
Sun 06:23:25 AM 40.5389 -76.9650 193° South 264 304 16,000  Level New York Center
Sun 06:24:25 AM 40.4689 -76.9858 193° South 264 304 16,000 -504 Level New York Center
Sun 06:25:24 AM 40.3967 -77.0094 194° South 269 310 15,000 -850 Descending New York Center
Sun 06:26:25 AM 40.3183 -77.0322 193° South 282 325 14,300 -780 Descending New York Center
Sun 06:27:27 AM 40.2381 -77.0550 192° South 292 336 13,400 -807 Descending New York Center
Sun 06:28:24 AM 40.1617 -77.0781 193° South 292 336 12,700 -737 Descending New York Center
Sun 06:30:26 AM 40.0167 -77.1167 192° South 269 310 11,200 -692 Descending Potomac TRACON
Sun 06:31:26 AM 39.9333 -77.1500 197° South 273 314 10,600 -667 Descending Potomac TRACON
Sun 06:32:32 AM 39.8500 -77.1667 189° South 278 320 9,800 -800 Descending Potomac TRACON
Sun 06:33:26 AM 39.7833 -77.2000 201° Southwest 281 323 9,000 -889 Descending Potomac TRACON
Sun 06:34:20 AM 39.7167 -77.2167 191° South 279 321 8,200 -947 Descending Potomac TRACON
Sun 06:35:20 AM 39.6500 -77.2500 201° Southwest 273 314 7,200 -895 Descending Potomac TRACON
Sun 06:36:14 AM 39.6000 -77.3000 218° Southwest 268 308 6,500 -842 Descending Potomac TRACON
Sun 06:37:14 AM 39.5333 -77.3500 210° Southwest 267 307 5,600 -900 Descending Potomac TRACON
Sun 06:38:14 AM 39.4667 -77.4000 210° Southwest 265 305 4,700 -800 Descending Potomac TRACON
Sun 06:39:14 AM 39.4000 -77.4333 201° Southwest 262 302 4,000 -650 Descending Potomac TRACON
Sun 06:40:14 AM 39.3333 -77.4333 180° South 260 299 3,400 -526 Descending Potomac TRACON
Sun 06:41:08 AM 39.2667 -77.4333 180° South 256 295 3,000 -211 Descending Potomac TRACON
Sun 06:42:08 AM 39.2000 -77.4333 180° South 247 284 3,000  Level Potomac TRACON
Sun 06:43:08 AM 39.1333 -77.4333 180° South 245 282 3,000 -278 Level Potomac TRACON
Sun 06:43:56 AM 39.0667 -77.4333 180° South 238 274 2,500 -895 Descending Potomac TRACON
Sun 06:45:02 AM 39.0167 -77.4333 180° South 191 220 1,300 -900 Descending Potomac TRACON
Sun 06:45:56 AM 38.9833 -77.4333 180° South 124 143 700 -667 Descending Potomac TRACON
Sun 06:47:00 AM 38.9474 -77.4599 128° Southeast  Level Estimated
Sun 06:54:00 AM 38.9474 -77.4599 349° North  Level Estimated
Sun 06:55:00 AM 38.9474 -77.4599 349° North  Level Estimated

Login

Don't have an account? Register now (free) for customized features, flight alerts, and more!